createdAt,value
2022-08-05T00:00:52.091Z,72.21
2022-08-05T00:01:53.947Z,72.09
2022-08-05T00:02:55.942Z,72.25
2022-08-05T00:03:57.731Z,72.18
2022-08-05T00:04:59.530Z,72.04
2022-08-05T00:06:06.585Z,71.95
2022-08-05T00:07:58.930Z,72.59
2022-08-05T00:08:45.462Z,72.18
2022-08-05T00:09:49.235Z,72.10
2022-08-05T00:10:50.969Z,72.34
2022-08-05T00:11:56.084Z,72.25
2022-08-05T00:13:01.944Z,72.12
2022-08-05T00:14:12.875Z,72.09
2022-08-05T00:15:55.431Z,72.89
2022-08-05T00:16:52.036Z,73.15
2022-08-05T00:17:55.020Z,73.01
2022-08-05T00:18:56.894Z,72.76
2022-08-05T00:20:02.752Z,72.78
2022-08-05T00:21:06.921Z,72.50
2022-08-05T00:22:11.450Z,72.24
2022-08-05T00:23:13.463Z,72.76
2022-08-05T00:24:18.965Z,72.27
2022-08-05T00:25:25.919Z,72.74
2022-08-05T00:28:39.068Z,72.91
2022-08-05T00:29:41.697Z,72.78
2022-08-05T00:30:44.269Z,72.92
2022-08-05T00:32:11.134Z,72.80
2022-08-05T00:33:15.708Z,72.54
2022-08-05T00:34:53.350Z,72.46
2022-08-05T00:36:14.994Z,72.49
2022-08-05T00:37:14.285Z,72.87
2022-08-05T00:38:16.517Z,73.29
2022-08-05T00:39:41.558Z,73.12
2022-08-05T00:40:53.130Z,73.41
2022-08-05T00:41:55.871Z,73.63
2022-08-05T00:42:59.338Z,74.25
2022-08-05T00:44:01.246Z,73.88
2022-08-05T00:45:05.207Z,73.88
2022-08-05T00:46:10.435Z,73.47
2022-08-05T00:47:12.336Z,74.10
2022-08-05T00:48:31.189Z,74.94
2022-08-05T00:49:49.352Z,73.97
2022-08-05T00:50:53.636Z,73.87
2022-08-05T00:51:55.485Z,73.94
2022-08-05T00:52:57.359Z,73.98
2022-08-05T00:54:02.610Z,73.48
2022-08-05T00:55:05.126Z,74.54
2022-08-05T00:56:07.813Z,74.69
2022-08-05T00:57:09.960Z,74.03
2022-08-05T00:58:13.286Z,74.14
2022-08-05T00:59:15.192Z,74.80
2022-08-05T01:00:17.180Z,75.18
2022-08-05T01:01:42.157Z,74.60
2022-08-05T01:02:43.718Z,75.00
2022-08-05T01:03:45.913Z,75.13
2022-08-05T01:04:52.090Z,75.52
2022-08-05T01:05:54.621Z,75.14
2022-08-05T01:06:57.100Z,74.89
2022-08-05T01:08:40.997Z,74.75
2022-08-05T01:09:20.808Z,74.61
2022-08-05T01:10:27.555Z,74.53
2022-08-05T01:11:37.185Z,74.91
2022-08-05T01:12:54.184Z,74.54
2022-08-05T01:14:27.833Z,74.92
2022-08-05T01:15:36.836Z,74.40
2022-08-05T01:16:47.382Z,74.66
2022-08-05T01:17:53.848Z,74.15
2022-08-05T01:19:00.790Z,74.62
2022-08-05T01:20:35.738Z,74.39
2022-08-05T01:21:58.547Z,74.32
2022-08-05T01:23:23.480Z,74.38
2022-08-05T01:24:43.880Z,74.38
2022-08-05T01:25:58.664Z,74.21
2022-08-05T01:27:00.411Z,74.31
2022-08-05T01:28:52.140Z,74.55
2022-08-05T01:29:56.940Z,74.85
2022-08-05T01:31:04.832Z,74.43
2022-08-05T01:32:12.588Z,74.21
2022-08-05T01:33:22.038Z,74.06
2022-08-05T01:34:30.473Z,73.92
2022-08-05T01:35:50.709Z,73.29
2022-08-05T01:37:00.675Z,73.67
2022-08-05T01:38:04.751Z,73.60
2022-08-05T01:39:06.771Z,73.52
2022-08-05T01:40:11.396Z,73.85
2022-08-05T01:41:15.042Z,73.89
2022-08-05T01:42:19.660Z,73.86
2022-08-05T01:43:23.046Z,73.94
2022-08-05T01:44:35.322Z,74.31
2022-08-05T01:45:43.108Z,73.77
2022-08-05T01:46:46.593Z,73.60
2022-08-05T01:47:49.997Z,73.50
2022-08-05T01:48:57.997Z,73.58
2022-08-05T01:50:03.034Z,73.57
2022-08-05T01:51:11.866Z,73.20
2022-08-05T01:52:17.838Z,73.56
2022-08-05T01:53:55.128Z,73.43
2022-08-05T01:54:46.799Z,73.60
2022-08-05T01:55:58.331Z,73.72
2022-08-05T01:58:09.947Z,73.61
2022-08-05T01:58:40.343Z,73.29
2022-08-05T01:59:47.036Z,73.29
2022-08-05T02:00:52.480Z,73.30
2022-08-05T02:01:57.663Z,73.01
2022-08-05T02:03:04.184Z,73.21
2022-08-05T02:04:07.097Z,73.15
2022-08-05T02:05:11.835Z,73.11
2022-08-05T02:06:37.410Z,72.80
2022-08-05T02:07:36.876Z,72.86
2022-08-05T02:08:55.010Z,73.04
2022-08-05T02:10:01.352Z,72.82
2022-08-05T02:11:06.943Z,73.02
2022-08-05T02:12:18.920Z,73.18
2022-08-05T02:13:28.863Z,72.97
2022-08-05T02:14:57.210Z,73.46
2022-08-05T02:16:04.489Z,73.51
2022-08-05T02:17:16.845Z,73.23
2022-08-05T02:18:35.344Z,73.11
2022-08-05T02:19:47.344Z,73.23
2022-08-05T02:20:54.419Z,73.71
2022-08-05T02:22:00.828Z,74.26
2022-08-05T02:23:06.090Z,74.09
2022-08-05T02:24:12.732Z,74.28
2022-08-05T02:25:22.473Z,73.83
2022-08-05T02:26:38.530Z,73.66
2022-08-05T02:27:59.792Z,73.37
2022-08-05T02:29:02.376Z,73.64
2022-08-05T02:30:07.029Z,73.16
2022-08-05T02:31:16.807Z,73.17
2022-08-05T02:32:30.967Z,73.37
2022-08-05T02:33:38.816Z,73.18
2022-08-05T02:34:41.611Z,73.20
2022-08-05T02:35:49.988Z,73.31
2022-08-05T02:37:01.615Z,73.44
2022-08-05T02:38:09.535Z,73.44
2022-08-05T02:39:12.094Z,73.13
2022-08-05T02:40:17.206Z,74.09
2022-08-05T02:41:20.312Z,74.48
2022-08-05T02:42:27.609Z,74.21
2022-08-05T02:43:34.453Z,75.23
2022-08-05T02:44:38.518Z,74.65
2022-08-05T02:45:52.849Z,74.88
2022-08-05T02:46:59.973Z,74.32
2022-08-05T02:48:11.995Z,74.55
2022-08-05T02:49:15.714Z,74.00
2022-08-05T02:50:18.269Z,74.10
2022-08-05T02:51:28.288Z,74.51
2022-08-05T02:52:44.826Z,74.30
2022-08-05T02:53:47.992Z,74.17
2022-08-05T02:54:57.408Z,74.59
2022-08-05T02:56:01.964Z,74.32
2022-08-05T02:57:10.188Z,74.60
2022-08-05T02:58:30.238Z,74.13
2022-08-05T02:59:48.134Z,74.16
2022-08-05T03:00:53.930Z,74.11
2022-08-05T03:02:00.967Z,74.54
2022-08-05T03:03:10.131Z,74.49
2022-08-05T03:04:15.808Z,74.32
2022-08-05T03:06:52.353Z,74.22
2022-08-05T03:06:54.540Z,73.96
2022-08-05T03:08:08.638Z,73.75
2022-08-05T03:09:15.868Z,74.39
2022-08-05T03:10:29.136Z,74.04
2022-08-05T03:11:54.885Z,73.66
2022-08-05T03:12:54.329Z,74.11
2022-08-05T03:14:02.847Z,73.98
2022-08-05T03:15:06.786Z,73.83
2022-08-05T03:16:09.476Z,73.62
2022-08-05T03:17:17.571Z,73.81
2022-08-05T03:18:29.912Z,73.55
2022-08-05T03:19:33.953Z,73.59
2022-08-05T03:20:37.974Z,73.91
2022-08-05T03:21:49.434Z,74.07
2022-08-05T03:22:52.371Z,73.99
2022-08-05T03:23:54.801Z,74.34
2022-08-05T03:25:02.304Z,74.29
2022-08-05T03:26:31.781Z,73.98
2022-08-05T03:27:59.562Z,73.80
2022-08-05T03:28:56.531Z,73.67
2022-08-05T03:30:08.718Z,73.95
2022-08-05T03:31:11.055Z,74.97
2022-08-05T03:32:32.975Z,74.71
2022-08-05T03:33:50.863Z,74.76
2022-08-05T03:34:53.537Z,74.42
2022-08-05T03:35:59.816Z,74.47
2022-08-05T03:37:03.080Z,74.58
2022-08-05T03:38:04.994Z,74.06
2022-08-05T03:39:08.093Z,74.37
2022-08-05T03:40:24.387Z,74.31
2022-08-05T03:41:45.183Z,74.46
2022-08-05T03:42:52.522Z,75.20
2022-08-05T03:44:09.978Z,74.88
2022-08-05T03:45:21.647Z,75.04
2022-08-05T03:46:29.559Z,74.72
2022-08-05T03:47:35.448Z,74.91
2022-08-05T03:48:43.109Z,74.64
2022-08-05T03:49:51.507Z,74.66
2022-08-05T03:52:35.073Z,74.65
2022-08-05T03:52:48.553Z,74.17
2022-08-05T03:55:51.173Z,74.23
2022-08-05T03:56:05.518Z,74.12
2022-08-05T03:56:47.753Z,74.51
2022-08-05T03:57:53.086Z,74.79
2022-08-05T03:58:57.413Z,74.39
2022-08-05T04:00:07.411Z,74.25
2022-08-05T04:01:12.801Z,74.24
2022-08-05T04:02:17.284Z,74.95
2022-08-05T04:03:28.225Z,74.83
2022-08-05T04:04:32.182Z,74.73
2022-08-05T04:05:35.328Z,74.96
2022-08-05T04:06:37.766Z,74.66
2022-08-05T04:07:46.770Z,74.83
2022-08-05T04:09:01.400Z,75.03
2022-08-05T04:10:03.958Z,75.45
2022-08-05T04:11:08.651Z,75.32
2022-08-05T04:12:24.415Z,75.34
2022-08-05T04:13:49.343Z,75.07
2022-08-05T04:14:49.111Z,74.99
2022-08-05T04:16:03.243Z,75.07
2022-08-05T04:17:08.712Z,74.97
2022-08-05T04:18:22.441Z,74.76
2022-08-05T04:19:28.326Z,74.34
2022-08-05T04:20:30.152Z,74.39
2022-08-05T04:22:09.469Z,74.46
2022-08-05T04:22:55.479Z,74.39
2022-08-05T04:24:05.396Z,74.21
2022-08-05T04:25:08.935Z,74.15
2022-08-05T04:26:13.922Z,74.43
2022-08-05T04:27:16.206Z,74.56
2022-08-05T04:28:21.429Z,74.20
2022-08-05T04:29:33.844Z,74.53
2022-08-05T04:30:36.327Z,74.44
2022-08-05T04:31:39.390Z,74.33
2022-08-05T04:32:41.450Z,74.51
2022-08-05T04:34:17.623Z,74.81
2022-08-05T04:35:06.303Z,74.33
2022-08-05T04:36:45.206Z,74.89
2022-08-05T04:38:02.285Z,75.33
2022-08-05T04:38:55.725Z,75.02
2022-08-05T04:39:59.362Z,75.38
2022-08-05T04:41:01.324Z,75.68
2022-08-05T04:42:05.691Z,75.72
2022-08-05T04:43:10.962Z,75.46
2022-08-05T04:44:29.515Z,75.11
2022-08-05T04:45:48.981Z,75.23
2022-08-05T04:46:53.994Z,75.23
2022-08-05T04:48:03.147Z,75.44
2022-08-05T04:49:12.151Z,74.96
2022-08-05T04:50:37.257Z,75.02
2022-08-05T04:51:38.421Z,75.05
2022-08-05T04:52:40.294Z,74.65
2022-08-05T04:53:42.580Z,74.96
2022-08-05T04:54:46.075Z,75.09
2022-08-05T04:56:15.441Z,74.92
2022-08-05T04:57:09.693Z,74.93
2022-08-05T04:58:12.954Z,75.47
2022-08-05T04:59:24.292Z,75.45
2022-08-05T05:00:38.706Z,75.32
2022-08-05T05:02:06.686Z,75.24
2022-08-05T05:03:04.401Z,75.50
2022-08-05T05:04:06.639Z,75.29
2022-08-05T05:05:16.563Z,75.30
2022-08-05T05:06:40.348Z,74.91
2022-08-05T05:07:52.826Z,75.15
2022-08-05T05:08:58.156Z,74.87
2022-08-05T05:10:06.375Z,75.03
2022-08-05T05:11:08.411Z,75.01
2022-08-05T05:12:10.154Z,75.31
2022-08-05T05:13:14.714Z,75.53
2022-08-05T05:14:16.525Z,75.74
2022-08-05T05:15:57.246Z,76.00
2022-08-05T05:16:40.180Z,76.09
2022-08-05T05:17:56.728Z,75.94
2022-08-05T05:19:18.599Z,75.61
2022-08-05T05:20:21.039Z,75.60
2022-08-05T05:21:28.358Z,75.32
2022-08-05T05:22:35.454Z,75.39
2022-08-05T05:24:03.009Z,75.37
2022-08-05T05:25:16.374Z,76.09
2022-08-05T05:26:19.376Z,75.71
2022-08-05T05:27:44.909Z,75.67
2022-08-05T05:28:50.259Z,75.35
2022-08-05T05:30:04.250Z,76.28
2022-08-05T05:31:08.854Z,76.44
2022-08-05T05:32:12.422Z,76.60
2022-08-05T05:33:17.708Z,76.46
2022-08-05T05:34:26.885Z,76.39
2022-08-05T05:35:31.634Z,76.63
2022-08-05T05:36:39.716Z,76.47
2022-08-05T05:37:59.661Z,76.41
2022-08-05T05:39:03.855Z,76.34
2022-08-05T05:40:06.508Z,76.58
2022-08-05T05:41:09.551Z,76.78
2022-08-05T05:42:14.141Z,76.71
2022-08-05T05:43:16.358Z,76.58
2022-08-05T05:44:36.419Z,76.98
2022-08-05T05:45:39.433Z,76.76
2022-08-05T05:46:50.246Z,76.47
2022-08-05T05:48:06.035Z,76.28
2022-08-05T05:49:22.583Z,77.08
2022-08-05T05:50:25.039Z,76.79
2022-08-05T05:51:28.218Z,77.02
2022-08-05T05:52:34.643Z,77.43
2022-08-05T05:53:54.615Z,76.99
2022-08-05T05:55:01.327Z,76.32
2022-08-05T05:56:03.613Z,76.71
2022-08-05T05:57:05.494Z,76.63
2022-08-05T05:58:15.801Z,76.55
2022-08-05T05:59:17.626Z,76.55
2022-08-05T06:00:31.605Z,76.44
2022-08-05T06:01:38.667Z,76.58
2022-08-05T06:02:41.122Z,76.54
2022-08-05T06:04:01.214Z,76.84
2022-08-05T06:05:10.155Z,77.05
2022-08-05T06:06:17.904Z,77.18
2022-08-05T06:07:22.449Z,76.85
2022-08-05T06:08:31.851Z,77.13
2022-08-05T06:09:52.601Z,76.33
2022-08-05T06:10:56.383Z,76.66
2022-08-05T06:12:01.732Z,77.24
2022-08-05T06:13:05.581Z,76.72
2022-08-05T06:14:07.882Z,76.57
2022-08-05T06:15:16.500Z,76.57
2022-08-05T06:16:31.068Z,76.25
2022-08-05T06:17:52.768Z,76.34
2022-08-05T06:18:55.209Z,76.15
2022-08-05T06:19:59.525Z,76.04
2022-08-05T06:21:01.787Z,76.21
2022-08-05T06:22:04.481Z,76.11
2022-08-05T06:23:08.314Z,75.83
2022-08-05T06:24:12.090Z,75.33
2022-08-05T06:25:50.537Z,75.45
2022-08-05T06:26:36.719Z,75.64
2022-08-05T06:28:10.871Z,75.39
2022-08-05T06:29:03.478Z,75.09
2022-08-05T06:30:17.707Z,75.07
2022-08-05T06:31:22.602Z,75.38
2022-08-05T06:32:32.576Z,75.14
2022-08-05T06:34:06.804Z,75.02
2022-08-05T06:34:58.482Z,75.15
2022-08-05T06:36:03.568Z,74.89
2022-08-05T06:37:10.017Z,74.84
2022-08-05T06:38:14.668Z,74.28
2022-08-05T06:39:17.957Z,74.59
2022-08-05T06:40:27.663Z,74.53
2022-08-05T06:41:29.976Z,74.55
2022-08-05T06:42:37.087Z,74.69
2022-08-05T06:43:59.048Z,74.38
2022-08-05T06:45:05.423Z,74.41
2022-08-05T06:46:10.069Z,73.86
2022-08-05T06:48:11.814Z,74.20
2022-08-05T06:48:52.601Z,73.79
2022-08-05T06:50:02.042Z,73.37
2022-08-05T06:51:09.585Z,73.48
2022-08-05T06:52:38.242Z,73.56
2022-08-05T06:53:39.426Z,73.57
2022-08-05T06:54:41.318Z,73.62
2022-08-05T06:55:43.090Z,73.69
2022-08-05T06:56:54.871Z,73.84
2022-08-05T06:58:29.657Z,73.98
2022-08-05T06:59:38.767Z,73.60
2022-08-05T07:00:44.107Z,73.94
2022-08-05T07:01:46.496Z,73.86
2022-08-05T07:02:54.803Z,73.14
2022-08-05T07:03:56.686Z,73.53
2022-08-05T07:04:58.564Z,73.29
2022-08-05T07:06:06.101Z,73.82
2022-08-05T07:07:16.406Z,73.37
2022-08-05T07:08:26.033Z,72.83
2022-08-05T07:09:32.323Z,71.84
2022-08-05T07:10:52.341Z,71.98
2022-08-05T07:11:56.182Z,72.36
2022-08-05T07:13:34.124Z,72.92
2022-08-05T07:15:01.421Z,72.63
2022-08-05T07:17:56.513Z,72.22
2022-08-05T07:17:59.721Z,71.40
2022-08-05T07:19:05.126Z,71.71
2022-08-05T07:20:32.770Z,71.52
2022-08-05T07:22:00.382Z,71.70
2022-08-05T07:22:53.721Z,71.59
2022-08-05T07:23:55.489Z,71.72
2022-08-05T07:25:23.831Z,70.91
2022-08-05T07:26:25.613Z,70.23
2022-08-05T07:27:58.558Z,70.68
2022-08-05T07:28:51.057Z,70.62
2022-08-05T07:30:24.543Z,69.87
2022-08-05T07:31:14.761Z,69.97
2022-08-05T07:32:17.410Z,70.17
2022-08-05T07:33:36.687Z,69.60
2022-08-05T07:34:42.132Z,68.68
2022-08-05T07:36:03.136Z,69.24
2022-08-05T07:37:07.383Z,69.21
2022-08-05T07:38:32.896Z,68.24
2022-08-05T07:40:04.696Z,68.28
2022-08-05T07:40:59.111Z,68.01
2022-08-05T07:42:13.474Z,68.14
2022-08-05T07:43:20.847Z,68.44
2022-08-05T07:44:22.996Z,67.85
2022-08-05T07:45:56.287Z,68.15
2022-08-05T07:46:49.636Z,67.83
2022-08-05T07:47:55.783Z,67.84
2022-08-05T07:49:02.099Z,68.68
2022-08-05T07:50:06.829Z,68.89
2022-08-05T07:51:23.629Z,68.52
2022-08-05T07:52:31.422Z,67.34
2022-08-05T07:53:37.039Z,67.74
2022-08-05T07:54:52.681Z,69.29
2022-08-05T07:56:06.428Z,68.42
2022-08-05T07:57:41.941Z,67.03
2022-08-05T07:58:55.048Z,66.96
2022-08-05T08:00:00.216Z,68.49
2022-08-05T08:01:02.088Z,68.36
2022-08-05T08:02:15.349Z,67.92
2022-08-05T08:03:19.029Z,67.38
2022-08-05T08:04:37.759Z,67.86
2022-08-05T08:05:47.268Z,67.51
2022-08-05T08:06:51.756Z,68.48
2022-08-05T08:07:59.827Z,68.92
2022-08-05T08:09:02.489Z,67.34
2022-08-05T08:10:06.288Z,66.52
2022-08-05T08:11:09.116Z,65.67
2022-08-05T08:12:35.013Z,66.14
2022-08-05T08:13:49.248Z,66.96
2022-08-05T08:14:51.558Z,68.65
2022-08-05T08:16:35.277Z,68.90
2022-08-05T08:17:15.966Z,67.83
2022-08-05T08:18:20.836Z,67.53
2022-08-05T08:20:21.307Z,68.49
2022-08-05T08:21:02.225Z,66.65
2022-08-05T08:22:05.955Z,66.60
2022-08-05T08:24:00.120Z,65.72
2022-08-05T08:24:50.956Z,67.06
2022-08-05T08:26:00.216Z,67.59
2022-08-05T08:27:07.036Z,67.77
2022-08-05T08:28:18.202Z,68.15
2022-08-05T08:30:05.546Z,67.46
2022-08-05T08:30:52.539Z,65.89
2022-08-05T08:31:54.445Z,66.84
2022-08-05T08:32:56.269Z,67.06
2022-08-05T08:33:59.013Z,67.22
2022-08-05T08:35:01.882Z,68.64
2022-08-05T08:36:39.036Z,67.31
2022-08-05T08:37:27.854Z,67.21
2022-08-05T08:38:35.987Z,67.51
2022-08-05T08:39:49.464Z,68.00
2022-08-05T08:40:51.937Z,67.96
2022-08-05T08:42:00.169Z,69.02
2022-08-05T08:44:56.397Z,67.10
2022-08-05T08:45:19.418Z,67.32
2022-08-05T08:45:50.233Z,67.20
2022-08-05T08:46:52.212Z,67.13
2022-08-05T08:48:11.824Z,67.17
2022-08-05T08:50:23.369Z,66.15
2022-08-05T08:51:03.469Z,66.67
2022-08-05T08:52:28.302Z,66.36
2022-08-05T08:53:35.738Z,66.26
2022-08-05T08:54:37.610Z,65.76
2022-08-05T08:56:04.929Z,65.59
2022-08-05T08:57:11.029Z,65.56
2022-08-05T08:58:15.449Z,66.29
2022-08-05T08:59:20.802Z,66.58
2022-08-05T09:00:23.007Z,63.55
2022-08-05T09:01:24.953Z,64.44
2022-08-05T09:02:27.188Z,64.82
2022-08-05T09:03:40.500Z,65.36
2022-08-05T09:05:16.459Z,64.75
2022-08-05T09:06:11.579Z,65.08
2022-08-05T09:07:28.277Z,64.98
2022-08-05T09:08:31.210Z,62.86
2022-08-05T09:09:38.124Z,64.05
2022-08-05T09:10:41.730Z,63.74
2022-08-05T09:11:53.397Z,64.11
2022-08-05T09:12:58.943Z,63.81
2022-08-05T09:14:54.148Z,63.55
2022-08-05T09:15:30.458Z,64.15
2022-08-05T09:16:32.382Z,64.50
2022-08-05T09:17:41.295Z,65.20
2022-08-05T09:18:45.063Z,64.09
2022-08-05T09:20:01.441Z,62.60
2022-08-05T09:21:05.047Z,60.61
2022-08-05T09:22:13.607Z,60.73
2022-08-05T09:23:27.222Z,64.55
2022-08-05T09:24:30.937Z,64.86
2022-08-05T09:26:02.277Z,63.57
2022-08-05T09:26:57.578Z,62.22
2022-08-05T09:28:11.823Z,62.11
2022-08-05T09:29:19.198Z,60.54
2022-08-05T09:30:23.500Z,61.59
2022-08-05T09:32:41.483Z,63.46
2022-08-05T09:32:49.414Z,62.53
2022-08-05T09:33:56.275Z,62.61
2022-08-05T09:34:59.223Z,62.35
2022-08-05T09:36:07.531Z,62.37
2022-08-05T09:37:18.928Z,64.04
2022-08-05T09:38:55.546Z,63.47
2022-08-05T09:39:59.046Z,63.49
2022-08-05T09:41:08.854Z,63.53
2022-08-05T09:42:23.517Z,62.13
2022-08-05T09:43:40.710Z,61.51
2022-08-05T09:44:49.461Z,59.58
2022-08-05T09:46:07.312Z,60.64
2022-08-05T09:47:15.609Z,60.17
2022-08-05T09:48:28.473Z,60.79
2022-08-05T09:49:54.875Z,59.41
2022-08-05T09:51:14.881Z,58.20
2022-08-05T09:52:22.748Z,56.37
2022-08-05T09:53:54.557Z,58.56
2022-08-05T09:54:54.018Z,57.98
2022-08-05T09:56:04.888Z,59.61
2022-08-05T09:57:28.783Z,59.07
2022-08-05T09:58:37.133Z,56.08
2022-08-05T09:59:47.700Z,55.59
2022-08-05T10:00:55.481Z,56.69
2022-08-05T10:01:58.271Z,56.27
2022-08-05T10:03:09.331Z,55.56
2022-08-05T10:04:13.895Z,55.59
2022-08-05T10:05:21.273Z,56.71
2022-08-05T10:06:23.110Z,54.98
2022-08-05T10:07:50.375Z,54.22
2022-08-05T10:08:53.849Z,56.04
2022-08-05T10:10:04.266Z,54.38
2022-08-05T10:11:17.125Z,53.67
2022-08-05T10:12:33.319Z,52.18
2022-08-05T10:13:46.272Z,52.79
2022-08-05T10:14:49.770Z,54.20
2022-08-05T10:15:58.540Z,54.04
2022-08-05T10:17:39.238Z,53.21
2022-08-05T10:18:38.163Z,53.69
2022-08-05T10:20:03.677Z,52.29
2022-08-05T10:21:08.339Z,51.03
2022-08-05T10:22:15.500Z,52.23
2022-08-05T10:23:34.104Z,52.73
2022-08-05T10:24:41.306Z,51.56
2022-08-05T10:25:43.195Z,51.89
2022-08-05T10:26:51.482Z,51.45
2022-08-05T10:28:13.896Z,50.58
2022-08-05T10:29:23.587Z,49.30
2022-08-05T10:32:48.473Z,49.31
2022-08-05T10:32:52.646Z,48.13
2022-08-05T10:33:14.701Z,50.02
2022-08-05T10:34:17.163Z,49.11
2022-08-05T10:35:19.025Z,49.73
2022-08-05T10:36:23.579Z,47.49
2022-08-05T10:37:40.061Z,47.04
2022-08-05T10:38:48.601Z,46.74
2022-08-05T10:40:03.946Z,48.01
2022-08-05T10:41:26.189Z,45.35
2022-08-05T10:42:50.478Z,46.73
2022-08-05T10:43:57.695Z,47.99
2022-08-05T10:45:01.613Z,45.22
2022-08-05T10:46:08.724Z,47.55
2022-08-05T10:47:26.938Z,46.73
2022-08-05T10:48:52.894Z,46.69
2022-08-05T10:50:20.687Z,45.45
2022-08-05T10:51:28.732Z,44.79
2022-08-05T10:52:39.651Z,45.38
2022-08-05T10:53:51.445Z,45.11
2022-08-05T10:55:04.251Z,45.04
2022-08-05T10:56:21.575Z,46.75
2022-08-05T10:57:30.960Z,45.79
2022-08-05T10:58:47.763Z,44.24
2022-08-05T11:00:09.966Z,45.20
2022-08-05T11:01:15.326Z,46.49
2022-08-05T11:02:38.055Z,42.92
2022-08-05T11:03:59.599Z,42.50
2022-08-05T11:05:04.555Z,44.23
2022-08-05T11:06:15.301Z,45.90
2022-08-05T11:07:32.920Z,45.06
2022-08-05T11:09:02.007Z,45.00
2022-08-05T11:10:09.959Z,44.10
2022-08-05T11:11:33.177Z,44.73
2022-08-05T11:12:50.852Z,43.63
2022-08-05T11:13:58.532Z,43.75
2022-08-05T11:15:19.991Z,41.79
2022-08-05T11:16:47.608Z,42.26
2022-08-05T11:18:00.179Z,43.30
2022-08-05T11:20:11.337Z,42.52
2022-08-05T11:20:47.667Z,42.17
2022-08-05T11:21:50.265Z,43.13
2022-08-05T11:22:54.086Z,43.18
2022-08-05T11:24:30.325Z,43.43
2022-08-05T11:26:05.895Z,41.54
2022-08-05T11:27:19.403Z,42.05
2022-08-05T11:28:21.237Z,39.73
2022-08-05T11:29:42.967Z,41.60
2022-08-05T11:30:58.558Z,42.14
2022-08-05T11:32:20.543Z,40.26
2022-08-05T11:33:34.727Z,40.86
2022-08-05T11:34:54.122Z,41.69
2022-08-05T11:36:08.013Z,41.98
2022-08-05T11:38:30.852Z,42.28
2022-08-05T11:38:45.851Z,42.19
2022-08-05T11:39:55.501Z,41.43
2022-08-05T11:41:34.246Z,41.67
2022-08-05T11:42:28.890Z,40.13
2022-08-05T11:43:35.501Z,40.80
2022-08-05T11:44:55.945Z,39.65
2022-08-05T11:46:15.411Z,40.73
2022-08-05T11:47:48.467Z,41.90
2022-08-05T11:48:49.978Z,38.84
2022-08-05T11:49:57.072Z,39.12
2022-08-05T11:50:59.965Z,40.28
2022-08-05T11:52:01.940Z,38.73
2022-08-05T11:53:13.116Z,38.13
2022-08-05T11:54:32.646Z,40.09
2022-08-05T11:55:36.689Z,39.03
2022-08-05T11:56:50.173Z,40.26
2022-08-05T11:58:09.810Z,38.35
2022-08-05T11:59:21.329Z,40.21
2022-08-05T12:00:30.988Z,37.78
2022-08-05T12:01:32.818Z,38.78
2022-08-05T12:02:36.346Z,39.27
2022-08-05T12:03:43.402Z,39.98
2022-08-05T12:04:59.998Z,39.29
2022-08-05T12:06:03.360Z,38.85
2022-08-05T12:07:09.537Z,40.30
2022-08-05T12:08:11.819Z,38.50
2022-08-05T12:09:53.495Z,39.94
2022-08-05T12:10:52.576Z,38.22
2022-08-05T12:11:54.657Z,38.32
2022-08-05T12:13:03.515Z,38.73
2022-08-05T12:14:17.909Z,38.54
2022-08-05T12:15:35.971Z,36.28
2022-08-05T12:16:45.565Z,37.54
2022-08-05T12:18:03.061Z,37.76
2022-08-05T12:19:08.402Z,37.31
2022-08-05T12:20:17.001Z,38.58
2022-08-05T12:21:30.734Z,39.67
2022-08-05T12:22:33.769Z,36.68
2022-08-05T12:23:35.550Z,37.14
2022-08-05T12:24:49.754Z,36.13
2022-08-05T12:25:53.683Z,37.69
2022-08-05T12:26:58.882Z,37.47
2022-08-05T12:28:02.375Z,36.74
2022-08-05T12:29:15.992Z,36.18
2022-08-05T12:30:18.400Z,36.04
2022-08-05T12:31:28.047Z,35.53
2022-08-05T12:32:36.225Z,35.55
2022-08-05T12:33:41.625Z,38.07
2022-08-05T12:34:45.198Z,34.92
2022-08-05T12:35:51.552Z,36.99
2022-08-05T12:36:59.072Z,36.26
2022-08-05T12:38:02.338Z,35.86
2022-08-05T12:39:06.945Z,36.50
2022-08-05T12:40:10.826Z,38.17
2022-08-05T12:41:14.073Z,37.77
2022-08-05T12:42:20.388Z,38.01
2022-08-05T12:43:22.224Z,38.35
2022-08-05T12:44:33.628Z,37.64
2022-08-05T12:45:42.569Z,37.00
2022-08-05T12:46:55.291Z,36.65
2022-08-05T12:48:17.576Z,38.13
2022-08-05T12:49:19.505Z,35.53
2022-08-05T12:50:27.474Z,37.66
2022-08-05T12:52:13.585Z,35.99
2022-08-05T12:53:05.203Z,37.08
2022-08-05T12:54:16.889Z,36.88
2022-08-05T12:55:26.670Z,36.70
2022-08-05T12:56:34.388Z,36.71
2022-08-05T12:58:38.018Z,35.68
2022-08-05T12:59:23.872Z,33.90
2022-08-05T13:02:01.666Z,35.19
2022-08-05T13:02:03.017Z,34.57
2022-08-05T13:03:12.017Z,36.52
2022-08-05T13:04:20.857Z,35.61
2022-08-05T13:05:24.315Z,34.29
2022-08-05T13:06:40.446Z,35.29
2022-08-05T13:08:00.712Z,35.05
2022-08-05T13:09:13.871Z,35.62
2022-08-05T13:10:19.352Z,35.01
2022-08-05T13:12:01.139Z,36.39
2022-08-05T13:12:51.233Z,35.53
2022-08-05T13:14:04.667Z,36.43
2022-08-05T13:15:18.121Z,34.98
2022-08-05T13:16:27.931Z,33.37
2022-08-05T13:17:31.615Z,34.36
2022-08-05T13:18:39.951Z,33.88
2022-08-05T13:19:52.879Z,34.36
2022-08-05T13:20:54.816Z,34.83
2022-08-05T13:21:57.832Z,35.68
2022-08-05T13:23:01.088Z,35.87
2022-08-05T13:24:09.201Z,35.91
2022-08-05T13:25:19.369Z,34.42
2022-08-05T13:26:29.977Z,35.22
2022-08-05T13:27:38.403Z,36.00
2022-08-05T13:28:40.893Z,35.12
2022-08-05T13:30:35.220Z,36.76
2022-08-05T13:31:13.930Z,35.19
2022-08-05T13:32:21.771Z,35.81
2022-08-05T13:34:22.766Z,34.79
2022-08-05T13:34:57.652Z,35.69
2022-08-05T13:36:01.859Z,34.31
2022-08-05T13:37:03.803Z,36.14
2022-08-05T13:38:09.235Z,36.06
2022-08-05T13:40:14.630Z,33.46
2022-08-05T13:40:49.920Z,34.38
2022-08-05T13:41:54.212Z,32.88
2022-08-05T13:42:57.842Z,33.52
2022-08-05T13:43:59.731Z,34.63
2022-08-05T13:45:02.063Z,35.55
2022-08-05T13:46:03.855Z,34.33
2022-08-05T13:47:08.957Z,34.38
2022-08-05T13:48:57.909Z,34.86
2022-08-05T13:49:35.416Z,32.92
2022-08-05T13:50:37.361Z,35.80
2022-08-05T13:51:41.214Z,32.65
2022-08-05T13:52:44.143Z,34.08
2022-08-05T13:53:51.883Z,34.64
2022-08-05T13:55:01.157Z,34.31
2022-08-05T13:56:03.406Z,35.69
2022-08-05T13:57:05.252Z,35.58
2022-08-05T13:58:08.297Z,34.94
2022-08-05T13:59:19.969Z,33.15
2022-08-05T14:00:27.194Z,32.35
2022-08-05T14:01:44.116Z,34.43
2022-08-05T14:02:48.582Z,33.51
2022-08-05T14:04:10.327Z,32.55
2022-08-05T14:05:15.282Z,33.87
2022-08-05T14:06:26.932Z,32.40
2022-08-05T14:08:00.479Z,35.08
2022-08-05T14:08:59.436Z,34.43
2022-08-05T14:10:02.124Z,32.87
2022-08-05T14:11:20.591Z,34.09
2022-08-05T14:12:32.760Z,32.93
2022-08-05T14:13:34.869Z,36.17
2022-08-05T14:14:36.709Z,35.71
2022-08-05T14:16:04.692Z,35.97
2022-08-05T14:17:00.449Z,34.30
2022-08-05T14:18:02.568Z,34.92
2022-08-05T14:19:05.916Z,32.83
2022-08-05T14:20:08.040Z,33.37
2022-08-05T14:22:08.761Z,32.57
2022-08-05T14:22:34.547Z,33.03
2022-08-05T14:23:37.256Z,33.36
2022-08-05T14:24:40.212Z,31.76
2022-08-05T14:25:44.947Z,33.24
2022-08-05T14:27:08.459Z,34.54
2022-08-05T14:28:15.875Z,34.50
2022-08-05T14:29:28.026Z,34.02
2022-08-05T14:30:33.154Z,31.44
2022-08-05T14:32:03.061Z,32.38
2022-08-05T14:32:57.197Z,34.41
2022-08-05T14:34:00.864Z,34.34
2022-08-05T14:35:04.519Z,34.56
2022-08-05T14:36:12.590Z,34.88
2022-08-05T14:37:14.391Z,36.16
2022-08-05T14:38:33.126Z,34.13
2022-08-05T14:39:49.792Z,33.77
2022-08-05T14:40:58.827Z,34.54
2022-08-05T14:42:19.413Z,34.41
2022-08-05T14:43:39.156Z,36.66
2022-08-05T14:44:46.031Z,34.09
2022-08-05T14:45:47.971Z,34.16
2022-08-05T14:46:49.758Z,34.84
2022-08-05T14:48:03.318Z,36.10
2022-08-05T14:49:08.520Z,36.88
2022-08-05T14:50:18.224Z,37.73
2022-08-05T14:51:21.131Z,35.04
2022-08-05T14:52:50.531Z,36.53
2022-08-05T14:53:45.167Z,36.16
2022-08-05T14:54:53.077Z,36.49
2022-08-05T14:55:55.239Z,37.19
2022-08-05T14:56:58.093Z,37.04
2022-08-05T14:57:59.962Z,37.88
2022-08-05T14:59:02.249Z,37.77
2022-08-05T15:00:05.656Z,36.74
2022-08-05T15:01:16.148Z,37.79
2022-08-05T15:02:19.465Z,38.42
2022-08-05T15:03:22.943Z,39.90
2022-08-05T15:04:29.063Z,40.43
2022-08-05T15:06:08.430Z,40.47
2022-08-05T15:06:52.914Z,41.37
2022-08-05T15:08:06.188Z,41.49